createdAt,value
2022-08-03T00:02:22.026Z,99.27
2022-08-03T00:04:51.901Z,99.28
2022-08-03T00:07:21.496Z,98.29
2022-08-03T00:09:52.174Z,99.04
2022-08-03T00:12:22.401Z,99.15
2022-08-03T00:14:51.705Z,98.63
2022-08-03T00:17:21.556Z,99.61
2022-08-03T00:19:52.515Z,99.74
2022-08-03T00:22:22.265Z,99.50
2022-08-03T00:24:54.210Z,99.41
2022-08-03T00:27:24.448Z,98.99
2022-08-03T00:29:57.610Z,99.54
2022-08-03T00:32:30.614Z,99.46
2022-08-03T00:34:59.927Z,98.83
2022-08-03T00:37:40.717Z,99.53
2022-08-03T00:40:12.876Z,98.35
2022-08-03T00:43:12.662Z,99.16
2022-08-03T00:45:44.754Z,99.30
2022-08-03T00:48:32.234Z,99.39
2022-08-03T00:51:04.113Z,99.46
2022-08-03T00:53:34.206Z,99.58
2022-08-03T00:56:05.122Z,99.54
2022-08-03T00:58:35.104Z,99.52
2022-08-03T01:01:08.618Z,99.46
2022-08-03T01:03:38.782Z,99.47
2022-08-03T01:06:08.195Z,98.78
2022-08-03T01:08:56.081Z,99.00
2022-08-03T01:11:34.089Z,98.59
2022-08-03T01:14:18.675Z,99.29
2022-08-03T01:17:27.205Z,99.44
2022-08-03T01:20:02.611Z,99.44
2022-08-03T01:23:02.261Z,99.53
2022-08-03T01:25:44.053Z,99.12
2022-08-03T01:28:51.127Z,99.13
2022-08-03T01:31:23.616Z,98.71
2022-08-03T01:34:01.340Z,99.04
2022-08-03T01:36:46.217Z,99.34
2022-08-03T01:39:21.138Z,99.38
2022-08-03T01:42:00.442Z,99.63
2022-08-03T01:44:32.995Z,99.46
2022-08-03T01:47:05.825Z,99.62
2022-08-03T01:49:41.473Z,99.58
2022-08-03T01:52:13.942Z,99.67
2022-08-03T01:54:46.752Z,99.85
2022-08-03T01:57:17.571Z,99.73
2022-08-03T01:59:50.952Z,99.73
2022-08-03T02:02:33.482Z,99.72
2022-08-03T02:05:10.969Z,99.99
2022-08-03T02:07:43.813Z,99.86
2022-08-03T02:10:34.810Z,99.89
2022-08-03T02:13:09.376Z,99.90
2022-08-03T02:15:40.619Z,99.99
2022-08-03T02:18:12.931Z,99.99
2022-08-03T02:20:45.830Z,99.99
2022-08-03T02:23:19.417Z,99.99
2022-08-03T02:25:54.748Z,99.99
2022-08-03T02:28:33.371Z,99.99
2022-08-03T02:31:16.893Z,99.99
2022-08-03T02:34:03.163Z,99.99
2022-08-03T02:36:37.993Z,99.99
2022-08-03T02:39:11.421Z,99.99
2022-08-03T02:41:49.166Z,99.99
2022-08-03T02:44:27.980Z,99.99
2022-08-03T02:47:03.402Z,99.99
2022-08-03T02:49:49.500Z,99.99
2022-08-03T02:52:23.154Z,99.99
2022-08-03T02:54:57.594Z,99.99
2022-08-03T02:57:30.323Z,99.99
2022-08-03T03:00:01.405Z,99.99
2022-08-03T03:02:32.711Z,99.99
2022-08-03T03:05:53.360Z,99.99
2022-08-03T03:07:56.178Z,99.99
2022-08-03T03:10:27.271Z,99.99
2022-08-03T03:12:59.823Z,99.99
2022-08-03T03:15:32.296Z,99.99
2022-08-03T03:18:03.068Z,99.99
2022-08-03T03:20:34.977Z,99.99
2022-08-03T03:23:06.649Z,99.99
2022-08-03T03:25:38.115Z,99.99
2022-08-03T03:28:09.219Z,99.99
2022-08-03T03:30:39.552Z,99.99
2022-08-03T03:33:09.710Z,99.99
2022-08-03T03:35:40.356Z,99.99
2022-08-03T03:38:12.712Z,99.99
2022-08-03T03:40:43.163Z,99.99
2022-08-03T03:43:14.127Z,99.92
2022-08-03T03:45:44.672Z,99.90
2022-08-03T03:48:14.633Z,99.85
2022-08-03T03:50:46.075Z,99.89
2022-08-03T03:53:16.489Z,99.99
2022-08-03T03:56:02.208Z,99.99
2022-08-03T03:58:34.362Z,99.99
2022-08-03T04:01:04.414Z,99.99
2022-08-03T04:03:34.215Z,99.99
2022-08-03T04:06:21.980Z,99.99
2022-08-03T04:09:10.218Z,99.99
2022-08-03T04:11:43.256Z,99.99
2022-08-03T04:14:35.516Z,99.99
2022-08-03T04:17:07.876Z,99.99
2022-08-03T04:19:43.533Z,99.99
2022-08-03T04:22:18.154Z,99.99
2022-08-03T04:24:51.259Z,99.99
2022-08-03T04:27:25.103Z,99.99
2022-08-03T04:29:58.403Z,99.99
2022-08-03T04:32:29.884Z,99.99
2022-08-03T04:35:00.284Z,99.99
2022-08-03T04:37:53.134Z,99.99
2022-08-03T04:40:29.789Z,99.99
2022-08-03T04:43:01.187Z,99.99
2022-08-03T04:45:33.010Z,99.99
2022-08-03T04:48:04.082Z,99.99
2022-08-03T04:50:35.036Z,99.99
2022-08-03T04:53:09.985Z,99.99
2022-08-03T04:55:40.094Z,99.99
2022-08-03T04:58:09.595Z,99.99
2022-08-03T05:00:39.265Z,99.99
2022-08-03T05:03:20.505Z,99.99
2022-08-03T05:06:01.818Z,99.99
2022-08-03T05:08:45.231Z,99.99
2022-08-03T05:11:18.203Z,99.99
2022-08-03T05:13:50.301Z,99.99
2022-08-03T05:16:20.580Z,99.99
2022-08-03T05:18:50.304Z,99.99
2022-08-03T05:21:19.592Z,99.99
2022-08-03T05:23:49.214Z,99.99
2022-08-03T05:26:18.520Z,99.99
2022-08-03T05:28:48.827Z,99.99
2022-08-03T05:31:21.831Z,99.99
2022-08-03T05:33:51.803Z,99.99
2022-08-03T05:36:21.550Z,99.99
2022-08-03T05:38:50.785Z,99.99
2022-08-03T05:41:36.435Z,99.99
2022-08-03T05:44:07.846Z,99.99
2022-08-03T05:46:38.110Z,99.99
2022-08-03T05:49:07.891Z,99.99
2022-08-03T05:51:38.647Z,99.99
2022-08-03T05:54:08.452Z,99.99
2022-08-03T05:56:38.649Z,99.99
2022-08-03T05:59:35.787Z,99.99
2022-08-03T06:01:59.068Z,99.99
2022-08-03T06:04:28.876Z,99.99
2022-08-03T06:06:58.927Z,99.99
2022-08-03T06:09:31.835Z,99.99
2022-08-03T06:12:20.496Z,99.99
2022-08-03T06:14:50.765Z,99.99
2022-08-03T06:17:20.697Z,99.99
2022-08-03T06:19:50.373Z,99.99
2022-08-03T06:22:22.134Z,99.99
2022-08-03T06:24:53.417Z,99.99
2022-08-03T06:27:36.339Z,99.99
2022-08-03T06:30:09.697Z,99.99
2022-08-03T06:32:41.730Z,99.99
2022-08-03T06:35:22.297Z,99.99
2022-08-03T06:37:55.304Z,99.99
2022-08-03T06:40:32.863Z,99.99
2022-08-03T06:43:07.537Z,99.99
2022-08-03T06:45:40.687Z,99.99
2022-08-03T06:48:11.200Z,99.99
2022-08-03T06:50:43.227Z,99.99
2022-08-03T06:53:18.257Z,99.99
2022-08-03T06:55:54.627Z,99.99
2022-08-03T06:58:25.162Z,99.99
2022-08-03T07:00:55.865Z,99.99
2022-08-03T07:03:25.536Z,99.99
2022-08-03T07:05:54.844Z,99.99
2022-08-03T07:08:33.956Z,99.99
2022-08-03T07:11:04.644Z,99.99
2022-08-03T07:13:34.456Z,99.99
2022-08-03T07:16:03.732Z,99.99
2022-08-03T07:18:33.328Z,99.99
2022-08-03T07:21:03.056Z,99.99
2022-08-03T07:23:32.806Z,99.99
2022-08-03T07:26:02.886Z,99.99
2022-08-03T07:28:32.790Z,99.99
2022-08-03T07:31:02.554Z,99.99
2022-08-03T07:33:31.842Z,99.99
2022-08-03T07:36:01.512Z,99.99
2022-08-03T07:38:31.496Z,99.99
2022-08-03T07:41:01.186Z,99.99
2022-08-03T07:43:30.991Z,99.99
2022-08-03T07:46:00.696Z,99.99
2022-08-03T07:48:30.369Z,99.99
2022-08-03T07:51:00.419Z,99.99
2022-08-03T07:53:30.194Z,99.99
2022-08-03T07:55:59.461Z,99.99
2022-08-03T07:58:31.296Z,99.99
2022-08-03T08:01:00.628Z,99.99
2022-08-03T08:03:30.373Z,99.99
2022-08-03T08:06:20.661Z,99.99
2022-08-03T08:08:50.722Z,99.99
2022-08-03T08:11:20.568Z,99.99
2022-08-03T08:13:50.634Z,99.99
2022-08-03T08:16:20.380Z,99.99
2022-08-03T08:18:49.618Z,99.99
2022-08-03T08:21:20.382Z,99.99
2022-08-03T08:23:56.918Z,99.99
2022-08-03T08:26:27.969Z,99.99
2022-08-03T08:28:57.288Z,99.99
2022-08-03T08:31:27.265Z,99.99
2022-08-03T08:34:04.936Z,99.99
2022-08-03T08:36:36.576Z,99.99
2022-08-03T08:39:06.711Z,99.99
2022-08-03T08:41:35.981Z,99.99
2022-08-03T08:44:07.099Z,99.99
2022-08-03T08:46:38.437Z,99.99
2022-08-03T08:49:11.268Z,99.99
2022-08-03T08:51:59.765Z,99.99
2022-08-03T08:54:33.852Z,99.99
2022-08-03T08:57:21.078Z,99.99
2022-08-03T08:59:58.480Z,99.99
2022-08-03T09:02:32.146Z,99.99
2022-08-03T09:05:07.206Z,99.99
2022-08-03T09:07:37.767Z,99.99
2022-08-03T09:10:12.692Z,99.99
2022-08-03T09:12:49.041Z,99.99
2022-08-03T09:15:25.094Z,99.99
2022-08-03T09:17:57.806Z,99.99
2022-08-03T09:20:31.620Z,99.99
2022-08-03T09:23:51.207Z,99.99
2022-08-03T09:26:02.650Z,99.99
2022-08-03T09:28:59.964Z,99.99
2022-08-03T09:31:37.234Z,99.99
2022-08-03T09:34:14.828Z,99.99
2022-08-03T09:36:50.203Z,99.99
2022-08-03T09:39:37.468Z,99.99
2022-08-03T09:42:16.185Z,99.99
2022-08-03T09:44:50.936Z,99.99
2022-08-03T09:47:32.260Z,99.99
2022-08-03T09:50:11.612Z,99.99
2022-08-03T09:52:49.677Z,99.99
2022-08-03T09:56:35.294Z,99.99
2022-08-03T09:58:15.469Z,99.99
2022-08-03T10:01:06.777Z,99.99
2022-08-03T10:04:03.276Z,99.99
2022-08-03T10:06:29.554Z,99.99
2022-08-03T10:09:16.821Z,99.99
2022-08-03T10:11:48.052Z,99.99
2022-08-03T10:14:20.561Z,99.99
2022-08-03T10:16:51.506Z,99.99
2022-08-03T10:19:21.323Z,99.99
2022-08-03T10:22:02.674Z,99.99
2022-08-03T10:24:36.548Z,99.99
2022-08-03T10:27:09.412Z,99.99
2022-08-03T10:29:42.486Z,99.99
2022-08-03T10:32:41.552Z,99.99
2022-08-03T10:35:21.108Z,99.99
2022-08-03T10:37:59.314Z,99.99
2022-08-03T10:40:49.589Z,99.89
2022-08-03T10:43:24.382Z,99.73
2022-08-03T10:45:54.745Z,99.74
2022-08-03T10:48:25.807Z,99.50
2022-08-03T10:50:55.774Z,99.19
2022-08-03T10:53:44.123Z,98.95
2022-08-03T10:56:54.832Z,98.62
2022-08-03T10:59:52.117Z,96.57
2022-08-03T11:02:22.341Z,93.31
2022-08-03T11:05:29.307Z,92.67
2022-08-03T11:08:24.301Z,91.74
2022-08-03T11:11:03.154Z,89.32
2022-08-03T11:13:34.877Z,85.67
2022-08-03T11:16:22.452Z,89.14
2022-08-03T11:19:23.767Z,86.71
2022-08-03T11:21:58.646Z,85.78
2022-08-03T11:24:48.764Z,83.38
2022-08-03T11:27:22.577Z,86.65
2022-08-03T11:30:12.573Z,84.87
2022-08-03T11:32:46.679Z,81.42
2022-08-03T11:35:22.646Z,81.27
2022-08-03T11:38:04.599Z,80.54
2022-08-03T11:40:51.516Z,76.82
2022-08-03T11:43:28.985Z,76.32
2022-08-03T11:46:00.918Z,76.48
2022-08-03T11:48:37.347Z,74.77
2022-08-03T11:51:10.894Z,74.86
2022-08-03T11:53:45.585Z,76.01
2022-08-03T11:56:15.741Z,75.29
2022-08-03T11:59:19.258Z,76.81
2022-08-03T12:01:47.212Z,73.90
2022-08-03T12:04:17.427Z,76.71
2022-08-03T12:07:05.463Z,75.80
2022-08-03T12:09:37.315Z,73.67
2022-08-03T12:12:08.113Z,70.33
2022-08-03T12:14:50.786Z,71.24
2022-08-03T12:17:23.061Z,69.97
2022-08-03T12:19:53.077Z,71.02
2022-08-03T12:22:34.880Z,71.58
2022-08-03T12:25:06.277Z,65.85
2022-08-03T12:27:37.380Z,62.32
2022-08-03T12:30:07.711Z,60.06
2022-08-03T12:32:37.425Z,62.43
2022-08-03T12:35:07.738Z,60.66
2022-08-03T12:37:39.777Z,63.02
2022-08-03T12:40:15.117Z,64.01
2022-08-03T12:42:47.822Z,67.69
2022-08-03T12:45:28.834Z,66.17
2022-08-03T12:48:03.250Z,64.62
2022-08-03T12:50:35.466Z,68.69
2022-08-03T12:53:08.961Z,63.67
2022-08-03T12:56:05.367Z,64.88
2022-08-03T12:58:37.831Z,69.95
2022-08-03T13:01:10.792Z,66.04
2022-08-03T13:03:49.530Z,62.24
2022-08-03T13:06:26.214Z,61.97
2022-08-03T13:09:09.731Z,63.28
2022-08-03T13:11:53.556Z,60.24
2022-08-03T13:14:29.775Z,61.32
2022-08-03T13:16:59.762Z,61.61
2022-08-03T13:19:29.736Z,62.39
2022-08-03T13:22:04.205Z,65.24
2022-08-03T13:24:35.167Z,72.93
2022-08-03T13:28:03.978Z,68.85
2022-08-03T13:29:57.340Z,67.77
2022-08-03T13:32:27.507Z,69.74
2022-08-03T13:34:57.302Z,69.27
2022-08-03T13:37:27.699Z,71.35
2022-08-03T13:40:02.232Z,68.59
2022-08-03T13:42:34.404Z,69.98
2022-08-03T13:45:06.811Z,70.30
2022-08-03T13:47:38.358Z,70.93
2022-08-03T13:50:08.734Z,70.15
2022-08-03T13:52:39.188Z,66.42
2022-08-03T13:55:09.561Z,69.20
2022-08-03T13:58:04.185Z,66.93
2022-08-03T14:00:29.802Z,69.62
2022-08-03T14:03:12.871Z,67.91
2022-08-03T14:05:47.052Z,71.24
2022-08-03T14:08:16.967Z,68.29
2022-08-03T14:10:47.083Z,67.98
2022-08-03T14:13:18.166Z,67.13
2022-08-03T14:15:50.382Z,66.37
2022-08-03T14:18:29.080Z,68.56
2022-08-03T14:21:06.627Z,67.63
2022-08-03T14:23:41.280Z,69.61
2022-08-03T14:26:11.653Z,68.57
2022-08-03T14:28:42.000Z,68.93
2022-08-03T14:31:15.509Z,70.95
2022-08-03T14:34:01.981Z,67.11
2022-08-03T14:36:31.818Z,67.96
2022-08-03T14:39:02.361Z,67.39
2022-08-03T14:41:32.476Z,65.68
2022-08-03T14:44:02.597Z,64.20
2022-08-03T14:46:33.487Z,68.85
2022-08-03T14:50:31.359Z,65.61
2022-08-03T14:51:54.171Z,64.95
2022-08-03T14:54:24.492Z,66.78
2022-08-03T14:56:54.401Z,66.69
2022-08-03T14:59:24.324Z,68.17
2022-08-03T15:02:06.335Z,67.31
2022-08-03T15:04:38.778Z,64.04
2022-08-03T15:07:08.545Z,64.62
2022-08-03T15:09:40.176Z,65.07
2022-08-03T15:12:10.525Z,63.54
2022-08-03T15:14:41.260Z,64.46
2022-08-03T15:17:11.441Z,66.33
2022-08-03T15:20:01.682Z,69.55
2022-08-03T15:22:34.544Z,70.41
2022-08-03T15:26:28.246Z,67.62
2022-08-03T15:28:03.445Z,68.00
2022-08-03T15:30:37.944Z,69.14
2022-08-03T15:33:08.333Z,69.42
2022-08-03T15:35:38.124Z,70.43
2022-08-03T15:38:09.590Z,69.02
2022-08-03T15:40:40.731Z,69.34
2022-08-03T15:43:11.134Z,66.33
2022-08-03T15:45:42.018Z,67.86
2022-08-03T15:48:12.235Z,66.90
2022-08-03T15:50:42.651Z,68.20
2022-08-03T15:53:13.742Z,65.13
2022-08-03T15:55:45.232Z,64.24
2022-08-03T15:59:04.552Z,64.27
2022-08-03T16:01:07.809Z,62.89
2022-08-03T16:03:37.879Z,61.91
2022-08-03T16:06:09.056Z,60.13
2022-08-03T16:08:38.941Z,62.92
2022-08-03T16:11:08.773Z,61.19
2022-08-03T16:14:13.209Z,62.09
2022-08-03T16:16:28.877Z,61.41
2022-08-03T16:18:58.614Z,62.13
2022-08-03T16:21:38.632Z,60.98
2022-08-03T16:24:24.243Z,63.40
2022-08-03T16:27:00.810Z,62.21
2022-08-03T16:29:30.877Z,60.94
2022-08-03T16:32:09.491Z,61.32
2022-08-03T16:34:40.685Z,61.76
2022-08-03T16:37:37.060Z,59.17
2022-08-03T16:40:03.148Z,58.42
2022-08-03T16:42:33.144Z,59.22
2022-08-03T16:45:03.578Z,59.26
2022-08-03T16:47:33.533Z,60.36
2022-08-03T16:50:08.943Z,61.05
2022-08-03T16:52:47.244Z,58.54
2022-08-03T16:55:53.349Z,58.49
2022-08-03T16:58:12.525Z,64.73
2022-08-03T17:00:46.313Z,60.61
2022-08-03T17:03:24.221Z,63.07
2022-08-03T17:05:55.406Z,61.90
2022-08-03T17:08:30.689Z,59.66
2022-08-03T17:11:01.227Z,59.73
2022-08-03T17:13:39.335Z,58.57
2022-08-03T17:16:15.450Z,54.41
2022-08-03T17:19:02.033Z,53.24
2022-08-03T17:21:39.924Z,49.95
2022-08-03T17:24:27.249Z,50.87
2022-08-03T17:26:59.926Z,50.52
2022-08-03T17:29:31.415Z,46.40
2022-08-03T17:32:07.831Z,46.21
2022-08-03T17:34:45.049Z,56.20
2022-08-03T17:37:50.763Z,53.14
2022-08-03T17:40:07.306Z,49.47
2022-08-03T17:44:14.170Z,47.40
2022-08-03T17:46:12.236Z,49.01
2022-08-03T17:48:43.742Z,45.84
2022-08-03T17:51:21.555Z,44.59
2022-08-03T17:54:18.185Z,45.66
2022-08-03T17:57:22.118Z,46.68
2022-08-03T18:00:29.669Z,46.56
2022-08-03T18:03:20.584Z,44.56
2022-08-03T18:06:10.418Z,47.52
2022-08-03T18:08:56.218Z,44.97
2022-08-03T18:11:35.615Z,46.57
2022-08-03T18:14:32.913Z,46.13
2022-08-03T18:17:10.419Z,44.77
2022-08-03T18:20:02.049Z,48.16
2022-08-03T18:22:31.078Z,49.07
2022-08-03T18:25:07.543Z,49.01
2022-08-03T18:27:38.579Z,48.51
2022-08-03T18:30:18.890Z,49.11
2022-08-03T18:35:53.054Z,50.26
2022-08-03T18:38:25.092Z,49.83
2022-08-03T18:40:55.621Z,49.61
2022-08-03T18:43:47.660Z,49.47
2022-08-03T18:46:50.869Z,50.59
2022-08-03T18:49:37.412Z,50.49
2022-08-03T18:52:17.955Z,49.51
2022-08-03T18:55:11.150Z,47.71
2022-08-03T18:58:15.959Z,53.60
2022-08-03T19:01:57.524Z,56.68
2022-08-03T19:04:13.012Z,53.80
2022-08-03T19:06:49.400Z,54.41
2022-08-03T19:09:52.944Z,54.26
2022-08-03T19:12:48.952Z,52.74
2022-08-03T19:15:41.291Z,53.62
2022-08-03T19:18:16.378Z,53.39
2022-08-03T19:20:47.690Z,59.25
2022-08-03T19:23:26.185Z,62.58
2022-08-03T19:26:05.057Z,68.94
2022-08-03T19:28:57.901Z,69.97
2022-08-03T19:31:30.972Z,71.41
2022-08-03T19:34:02.182Z,72.85
2022-08-03T19:36:34.795Z,72.49
2022-08-03T19:39:11.117Z,72.03
2022-08-03T19:41:42.927Z,76.19
2022-08-03T19:44:28.441Z,75.84
2022-08-03T19:47:07.204Z,73.86
2022-08-03T19:50:05.977Z,75.12
2022-08-03T19:52:39.729Z,74.47
2022-08-03T19:55:12.836Z,75.88
2022-08-03T19:57:46.235Z,76.26
2022-08-03T20:00:26.630Z,76.01
2022-08-03T20:03:00.793Z,78.87
2022-08-03T20:05:44.926Z,77.91
2022-08-03T20:08:22.527Z,79.55
2022-08-03T20:10:52.880Z,79.75
2022-08-03T20:13:28.292Z,81.75
2022-08-03T20:15:58.094Z,78.28
2022-08-03T20:18:27.806Z,83.47
2022-08-03T20:21:05.397Z,84.55
2022-08-03T20:24:00.030Z,85.07
2022-08-03T20:26:33.282Z,85.88
2022-08-03T20:29:10.108Z,86.04
2022-08-03T20:31:41.447Z,86.94
2022-08-03T20:34:11.407Z,87.25
2022-08-03T20:36:47.837Z,87.75
2022-08-03T20:39:17.614Z,88.37
2022-08-03T20:41:48.266Z,88.73
2022-08-03T20:44:18.014Z,88.92
2022-08-03T20:47:00.486Z,89.43
2022-08-03T20:49:31.470Z,89.38
2022-08-03T20:55:12.961Z,89.58
2022-08-03T20:57:49.234Z,89.05
2022-08-03T21:00:22.250Z,89.49
2022-08-03T21:02:52.043Z,89.45
2022-08-03T21:05:47.644Z,89.62
2022-08-03T21:08:15.242Z,89.08
2022-08-03T21:10:47.601Z,89.32
2022-08-03T21:13:05.402Z,49.46
2022-08-03T21:13:07.593Z,89.13
2022-08-03T21:13:33.234Z,89.94
2022-08-03T21:16:13.965Z,89.91
2022-08-03T21:18:49.815Z,89.74
2022-08-03T21:21:23.127Z,89.79
2022-08-03T21:23:55.299Z,89.51
2022-08-03T21:26:27.557Z,89.67
2022-08-03T21:28:58.616Z,89.38
2022-08-03T21:31:28.752Z,89.22
2022-08-03T21:34:01.662Z,89.74
2022-08-03T21:36:34.787Z,89.15
2022-08-03T21:39:08.618Z,89.22
2022-08-03T21:41:41.507Z,89.11
2022-08-03T21:44:12.450Z,89.18
2022-08-03T21:46:44.164Z,89.25
2022-08-03T21:50:02.676Z,89.35
2022-08-03T21:52:09.217Z,89.69
2022-08-03T21:54:44.746Z,90.03
2022-08-03T21:57:24.806Z,89.94
2022-08-03T21:59:57.729Z,90.08
2022-08-03T22:02:32.439Z,90.42
2022-08-03T22:05:05.114Z,90.74
2022-08-03T22:07:36.170Z,91.10
2022-08-03T22:10:07.944Z,91.20
2022-08-03T22:12:38.200Z,90.98
2022-08-03T22:15:10.825Z,91.05
2022-08-03T22:17:55.173Z,91.75
2022-08-03T22:20:27.288Z,91.74
2022-08-03T22:23:01.655Z,92.06
2022-08-03T22:25:35.301Z,92.11
2022-08-03T22:28:10.314Z,92.25
2022-08-03T22:30:42.026Z,92.34
2022-08-03T22:33:13.617Z,92.42
2022-08-03T22:35:51.464Z,92.59
2022-08-03T22:38:21.477Z,92.65
2022-08-03T22:40:52.048Z,92.80
2022-08-03T22:43:29.129Z,93.14
2022-08-03T22:46:09.680Z,93.29
2022-08-03T22:48:42.573Z,93.49
2022-08-03T22:51:12.357Z,93.66
2022-08-03T22:53:42.239Z,93.63
2022-08-03T22:56:12.331Z,93.78
2022-08-03T22:58:43.634Z,93.84
2022-08-03T23:01:15.225Z,94.12
2022-08-03T23:04:00.924Z,94.26
2022-08-03T23:06:44.084Z,94.21
2022-08-03T23:09:16.909Z,94.60
2022-08-03T23:11:48.417Z,94.91
2022-08-03T23:14:20.817Z,95.07
2022-08-03T23:16:52.447Z,95.02
2022-08-03T23:19:25.895Z,95.32
2022-08-03T23:22:03.829Z,95.73
2022-08-03T23:24:38.075Z,95.91
2022-08-03T23:27:09.691Z,96.17
2022-08-03T23:29:43.732Z,96.22
2022-08-03T23:32:15.015Z,94.33
2022-08-03T23:35:04.917Z,93.12
2022-08-03T23:37:34.915Z,92.89
2022-08-03T23:40:27.345Z,93.10
2022-08-03T23:42:59.444Z,93.48
2022-08-03T23:45:31.922Z,93.68
2022-08-03T23:48:02.857Z,93.60
2022-08-03T23:50:45.412Z,93.54
2022-08-03T23:53:42.244Z,93.38
2022-08-03T23:56:23.130Z,93.64
2022-08-03T23:59:02.430Z,93.32
